createdAt,value
2017-08-26T00:00:26.249Z,99.99
2017-08-26T00:01:26.302Z,99.99
2017-08-26T00:02:26.342Z,99.99
2017-08-26T00:03:26.371Z,99.99
2017-08-26T00:04:26.395Z,99.99
2017-08-26T00:05:26.444Z,99.99
2017-08-26T00:06:26.472Z,99.99
2017-08-26T00:07:26.210Z,99.99
2017-08-26T00:08:26.608Z,99.99
2017-08-26T00:09:26.638Z,99.99
2017-08-26T00:10:26.668Z,99.99
2017-08-26T00:11:26.693Z,99.99
2017-08-26T00:12:26.735Z,99.99
2017-08-26T00:13:26.435Z,99.99
2017-08-26T00:14:26.791Z,99.99
2017-08-26T00:15:26.517Z,99.99
2017-08-26T00:16:26.847Z,99.99
2017-08-26T00:17:26.545Z,99.99
2017-08-26T00:18:26.928Z,99.99
2017-08-26T00:19:26.982Z,99.99
2017-08-26T00:20:26.642Z,99.99
2017-08-26T00:21:27.332Z,99.99
2017-08-26T00:22:27.683Z,99.99
2017-08-26T00:23:27.776Z,99.99
2017-08-26T00:24:27.810Z,99.99
2017-08-26T00:25:27.865Z,99.99
2017-08-26T00:26:27.874Z,99.99
2017-08-26T00:27:27.582Z,99.99
2017-08-26T00:28:27.946Z,99.99
2017-08-26T00:29:28.019Z,99.99
2017-08-26T00:30:28.031Z,99.99
2017-08-26T00:31:27.730Z,99.99
2017-08-26T00:32:28.139Z,99.99
2017-08-26T00:33:28.160Z,99.99
2017-08-26T00:34:27.844Z,99.99
2017-08-26T00:35:28.207Z,99.99
2017-08-26T00:36:28.258Z,99.99
2017-08-26T00:37:28.308Z,99.99
2017-08-26T00:38:28.340Z,99.99
2017-08-26T00:39:28.742Z,99.99
2017-08-26T00:40:28.768Z,99.99
2017-08-26T00:41:28.496Z,99.99
2017-08-26T00:42:28.841Z,99.99
2017-08-26T00:43:29.174Z,99.99
2017-08-26T00:44:29.243Z,99.99
2017-08-26T00:45:29.283Z,99.99
2017-08-26T00:46:29.293Z,99.99
2017-08-26T00:47:29.333Z,99.99
2017-08-26T00:48:29.743Z,99.99
2017-08-26T00:49:29.768Z,99.99
2017-08-26T00:50:29.779Z,99.99
2017-08-26T00:51:29.493Z,99.99
2017-08-26T00:52:29.893Z,99.99
2017-08-26T00:53:29.890Z,99.99
2017-08-26T00:54:29.902Z,99.99
2017-08-26T00:55:30.308Z,99.99
2017-08-26T00:56:30.684Z,99.99
2017-08-26T00:57:30.696Z,99.99
2017-08-26T00:58:30.743Z,99.99
2017-08-26T00:59:30.796Z,99.99
2017-08-26T01:00:30.814Z,99.99
2017-08-26T01:01:30.834Z,99.99
2017-08-26T01:02:30.866Z,99.99
2017-08-26T01:03:30.613Z,99.99
2017-08-26T01:04:31.048Z,99.99
2017-08-26T01:05:31.060Z,99.99
2017-08-26T01:06:31.107Z,99.99
2017-08-26T01:07:31.681Z,99.99
2017-08-26T01:08:31.287Z,99.99
2017-08-26T01:09:31.711Z,99.99
2017-08-26T01:10:31.753Z,99.99
2017-08-26T01:11:32.127Z,99.99
2017-08-26T01:12:32.292Z,99.99
2017-08-26T01:13:32.443Z,99.99
2017-08-26T01:14:32.510Z,99.99
2017-08-26T01:15:32.525Z,99.99
2017-08-26T01:16:32.239Z,99.99
2017-08-26T01:17:32.593Z,99.99
2017-08-26T01:18:32.643Z,99.99
2017-08-26T01:19:32.657Z,99.99
2017-08-26T01:20:32.665Z,99.99
2017-08-26T01:21:32.407Z,99.99
2017-08-26T01:22:32.498Z,99.99
2017-08-26T01:23:32.826Z,99.99
2017-08-26T01:24:32.907Z,99.99
2017-08-26T01:25:32.683Z,99.99
2017-08-26T01:26:32.935Z,99.99
2017-08-26T01:27:32.992Z,99.99
2017-08-26T01:28:32.650Z,99.99
2017-08-26T01:29:33.292Z,99.99
2017-08-26T01:30:33.034Z,99.99
2017-08-26T01:31:33.689Z,99.99
2017-08-26T01:32:33.708Z,99.99
2017-08-26T01:33:33.712Z,99.99
2017-08-26T01:34:34.108Z,99.99
2017-08-26T01:35:34.130Z,99.99
2017-08-26T01:36:33.827Z,99.99
2017-08-26T01:37:33.843Z,99.99
2017-08-26T01:38:34.227Z,99.99
2017-08-26T01:39:34.226Z,99.99
2017-08-26T01:40:34.551Z,99.99
2017-08-26T01:41:34.930Z,99.99
2017-08-26T01:42:34.957Z,99.99
2017-08-26T01:43:34.997Z,99.99
2017-08-26T01:44:35.004Z,99.99
2017-08-26T01:45:35.108Z,99.99
2017-08-26T01:46:35.491Z,99.99
2017-08-26T01:47:35.539Z,99.99
2017-08-26T01:48:35.590Z,99.99
2017-08-26T01:49:35.592Z,99.99
2017-08-26T01:50:35.645Z,99.99
2017-08-26T01:51:35.672Z,99.99
2017-08-26T01:52:35.683Z,99.99
2017-08-26T01:53:35.739Z,99.99
2017-08-26T01:54:35.745Z,99.99
2017-08-26T01:55:36.111Z,99.99
2017-08-26T01:56:36.525Z,99.99
2017-08-26T01:57:36.623Z,99.99
2017-08-26T01:58:36.635Z,99.99
2017-08-26T01:59:36.330Z,99.99
2017-08-26T02:00:36.737Z,99.99
2017-08-26T02:01:37.101Z,99.99
2017-08-26T02:02:36.793Z,99.99
2017-08-26T02:03:36.831Z,99.99
2017-08-26T02:04:36.864Z,99.99
2017-08-26T02:05:36.893Z,99.99
2017-08-26T02:06:36.608Z,99.99
2017-08-26T02:07:36.957Z,99.99
2017-08-26T02:08:37.010Z,99.99
2017-08-26T02:09:37.371Z,99.99
2017-08-26T02:10:37.383Z,99.99
2017-08-26T02:11:37.743Z,99.99
2017-08-26T02:12:37.773Z,99.99
2017-08-26T02:13:37.807Z,99.99
2017-08-26T02:14:37.865Z,99.99
2017-08-26T02:15:38.497Z,99.99
2017-08-26T02:16:38.856Z,99.99
2017-08-26T02:17:38.863Z,99.99
2017-08-26T02:18:39.217Z,99.99
2017-08-26T02:19:39.240Z,99.99
2017-08-26T02:20:39.298Z,99.99
2017-08-26T02:21:39.344Z,99.99
2017-08-26T02:22:39.366Z,99.99
2017-08-26T02:23:39.405Z,99.99
2017-08-26T02:24:39.449Z,99.99
2017-08-26T02:25:39.470Z,99.99
2017-08-26T02:26:39.811Z,99.99
2017-08-26T02:27:39.855Z,99.99
2017-08-26T02:28:39.860Z,99.99
2017-08-26T02:29:39.938Z,99.99
2017-08-26T02:30:40.258Z,99.99
2017-08-26T02:31:40.634Z,99.99
2017-08-26T02:32:40.311Z,99.99
2017-08-26T02:33:40.364Z,99.99
2017-08-26T02:34:40.740Z,99.99
2017-08-26T02:35:40.449Z,99.99
2017-08-26T02:36:40.472Z,99.99
2017-08-26T02:37:40.840Z,99.99
2017-08-26T02:38:41.176Z,99.99
2017-08-26T02:39:41.856Z,99.99
2017-08-26T02:40:41.886Z,99.99
2017-08-26T02:41:41.921Z,99.99
2017-08-26T02:42:41.954Z,99.99
2017-08-26T02:43:42.019Z,99.99
2017-08-26T02:44:42.347Z,99.99
2017-08-26T02:45:42.717Z,99.99
2017-08-26T02:46:42.749Z,99.99
2017-08-26T02:47:42.776Z,99.99
2017-08-26T02:48:42.786Z,99.99
2017-08-26T02:49:42.506Z,99.99
2017-08-26T02:50:43.149Z,99.99
2017-08-26T02:51:43.520Z,99.99
2017-08-26T02:52:43.611Z,99.99
2017-08-26T02:53:43.625Z,99.99
2017-08-26T02:54:43.667Z,99.99
2017-08-26T02:55:43.964Z,99.99
2017-08-26T02:56:44.355Z,99.99
2017-08-26T02:57:44.409Z,99.99
2017-08-26T02:58:44.417Z,99.99
2017-08-26T02:59:44.455Z,99.99
2017-08-26T03:00:44.169Z,99.99
2017-08-26T03:01:44.187Z,99.99
2017-08-26T03:02:44.553Z,99.99
2017-08-26T03:03:44.578Z,99.99
2017-08-26T03:04:44.636Z,99.99
2017-08-26T03:05:44.649Z,99.99
2017-08-26T03:06:44.357Z,99.99
2017-08-26T03:07:45.290Z,99.99
2017-08-26T03:08:45.187Z,99.99
2017-08-26T03:09:45.215Z,99.99
2017-08-26T03:10:45.261Z,99.99
2017-08-26T03:11:45.292Z,99.99
2017-08-26T03:12:45.325Z,99.99
2017-08-26T03:13:45.355Z,99.99
2017-08-26T03:14:45.685Z,99.99
2017-08-26T03:15:45.385Z,99.99
2017-08-26T03:16:45.749Z,99.99
2017-08-26T03:17:45.783Z,99.99
2017-08-26T03:18:45.787Z,99.99
2017-08-26T03:19:45.829Z,99.99
2017-08-26T03:20:45.873Z,99.99
2017-08-26T03:21:45.911Z,99.99
2017-08-26T03:22:45.943Z,99.99
2017-08-26T03:23:45.974Z,99.99
2017-08-26T03:24:45.667Z,99.99
2017-08-26T03:25:45.687Z,99.99
2017-08-26T03:26:46.072Z,99.99
2017-08-26T03:27:45.766Z,99.99
2017-08-26T03:28:46.434Z,99.99
2017-08-26T03:29:46.132Z,99.99
2017-08-26T03:30:46.540Z,99.99
2017-08-26T03:31:46.854Z,99.99
2017-08-26T03:32:46.587Z,99.99
2017-08-26T03:33:46.630Z,99.99
2017-08-26T03:34:47.287Z,99.99
2017-08-26T03:35:47.324Z,99.99
2017-08-26T03:36:47.672Z,99.99
2017-08-26T03:37:47.682Z,99.99
2017-08-26T03:38:48.035Z,99.99
2017-08-26T03:39:48.062Z,99.99
2017-08-26T03:40:48.118Z,99.99
2017-08-26T03:41:48.481Z,99.99
2017-08-26T03:42:48.824Z,99.99
2017-08-26T03:43:48.849Z,99.99
2017-08-26T03:44:48.546Z,99.99
2017-08-26T03:45:48.594Z,99.99
2017-08-26T03:46:48.950Z,99.99
2017-08-26T03:47:48.985Z,99.99
2017-08-26T03:48:49.023Z,99.99
2017-08-26T03:49:49.347Z,99.99
2017-08-26T03:50:49.378Z,99.99
2017-08-26T03:51:49.766Z,99.99
2017-08-26T03:52:49.839Z,99.99
2017-08-26T03:53:49.827Z,99.99
2017-08-26T03:54:49.549Z,99.99
2017-08-26T03:55:49.892Z,99.99
2017-08-26T03:56:49.926Z,99.99
2017-08-26T03:57:50.365Z,99.99
2017-08-26T03:58:50.391Z,99.99
2017-08-26T03:59:50.127Z,99.99
2017-08-26T04:00:50.824Z,99.99
2017-08-26T04:01:50.863Z,99.99
2017-08-26T04:02:50.860Z,99.99
2017-08-26T04:03:50.940Z,99.99
2017-08-26T04:04:51.292Z,99.99
2017-08-26T04:05:50.959Z,99.99
2017-08-26T04:06:51.277Z,99.99
2017-08-26T04:07:52.022Z,99.99
2017-08-26T04:08:51.988Z,99.99
2017-08-26T04:09:52.022Z,99.99
2017-08-26T04:10:52.071Z,99.99
2017-08-26T04:11:52.082Z,99.99
2017-08-26T04:12:52.467Z,99.99
2017-08-26T04:13:52.523Z,99.99
2017-08-26T04:14:52.549Z,99.99
2017-08-26T04:15:52.274Z,99.99
2017-08-26T04:16:52.627Z,99.99
2017-08-26T04:17:52.318Z,99.99
2017-08-26T04:18:52.344Z,99.99
2017-08-26T04:19:52.686Z,99.99
2017-08-26T04:20:52.724Z,99.99
2017-08-26T04:21:52.422Z,99.99
2017-08-26T04:22:52.785Z,99.99
2017-08-26T04:23:52.817Z,99.99
2017-08-26T04:24:52.848Z,99.99
2017-08-26T04:25:52.880Z,99.99
2017-08-26T04:26:52.918Z,99.99
2017-08-26T04:27:52.619Z,99.99
2017-08-26T04:28:52.973Z,99.99
2017-08-26T04:29:53.062Z,99.99
2017-08-26T04:30:53.072Z,99.99
2017-08-26T04:31:53.416Z,99.99
2017-08-26T04:32:53.450Z,99.99
2017-08-26T04:33:53.767Z,99.99
2017-08-26T04:34:53.483Z,99.99
2017-08-26T04:35:53.833Z,99.99
2017-08-26T04:36:54.147Z,99.99
2017-08-26T04:37:54.184Z,99.99
2017-08-26T04:38:54.477Z,99.99
2017-08-26T04:39:54.513Z,99.99
2017-08-26T04:40:54.865Z,99.99
2017-08-26T04:41:54.899Z,99.99
2017-08-26T04:42:54.923Z,99.99
2017-08-26T04:43:54.961Z,99.99
2017-08-26T04:44:55.018Z,99.99
2017-08-26T04:45:55.025Z,99.99
2017-08-26T04:46:55.052Z,99.99
2017-08-26T04:47:55.109Z,99.99
2017-08-26T04:48:55.121Z,99.99
2017-08-26T04:49:55.153Z,99.99
2017-08-26T04:50:55.181Z,99.99
2017-08-26T04:51:54.889Z,99.99
2017-08-26T04:52:55.251Z,99.99
2017-08-26T04:53:55.280Z,99.99
2017-08-26T04:54:55.318Z,99.99
2017-08-26T04:55:55.016Z,99.99
2017-08-26T04:56:55.717Z,99.99
2017-08-26T04:57:55.727Z,99.99
2017-08-26T04:58:55.428Z,99.99
2017-08-26T04:59:55.812Z,99.99
2017-08-26T05:00:55.867Z,99.99
2017-08-26T05:01:55.856Z,99.99
2017-08-26T05:02:55.885Z,99.99
2017-08-26T05:03:55.965Z,99.99
2017-08-26T05:04:55.727Z,99.99
2017-08-26T05:05:56.383Z,99.99
2017-08-26T05:06:56.763Z,99.99
2017-08-26T05:07:56.780Z,99.99
2017-08-26T05:08:56.885Z,99.99
2017-08-26T05:09:56.605Z,99.99
2017-08-26T05:10:56.967Z,99.99
2017-08-26T05:11:57.380Z,99.99
2017-08-26T05:12:57.394Z,99.99
2017-08-26T05:13:57.120Z,99.99
2017-08-26T05:14:57.155Z,99.99
2017-08-26T05:15:57.489Z,99.99
2017-08-26T05:16:57.188Z,99.99
2017-08-26T05:17:57.502Z,99.99
2017-08-26T05:18:57.871Z,99.99
2017-08-26T05:19:57.907Z,99.99
2017-08-26T05:20:57.944Z,99.99
2017-08-26T05:21:58.023Z,99.99
2017-08-26T05:22:57.704Z,99.99
2017-08-26T05:23:58.007Z,99.99
2017-08-26T05:24:58.356Z,99.99
2017-08-26T05:25:58.410Z,99.99
2017-08-26T05:26:58.113Z,99.99
2017-08-26T05:27:58.445Z,99.99
2017-08-26T05:28:58.505Z,99.99
2017-08-26T05:29:58.561Z,99.99
2017-08-26T05:30:58.905Z,99.99
2017-08-26T05:31:58.937Z,99.99
2017-08-26T05:32:58.969Z,99.99
2017-08-26T05:33:59.024Z,99.99
2017-08-26T05:34:58.709Z,99.99
2017-08-26T05:35:58.741Z,99.99
2017-08-26T05:36:59.114Z,99.99
2017-08-26T05:37:59.466Z,99.99
2017-08-26T05:38:59.539Z,99.99
2017-08-26T05:39:59.558Z,99.99
2017-08-26T05:40:59.912Z,99.99
2017-08-26T05:41:59.949Z,99.99
2017-08-26T05:42:59.668Z,99.99
2017-08-26T05:44:00.014Z,99.99
2017-08-26T05:45:00.051Z,99.99
2017-08-26T05:46:00.085Z,99.99
2017-08-26T05:47:00.446Z,99.99
2017-08-26T05:48:00.456Z,99.99
2017-08-26T05:49:00.489Z,99.99
2017-08-26T05:50:00.210Z,99.99
2017-08-26T05:51:00.279Z,99.99
2017-08-26T05:52:00.951Z,99.99
2017-08-26T05:53:00.960Z,99.99
2017-08-26T05:54:00.703Z,99.99
2017-08-26T05:55:00.797Z,99.99
2017-08-26T05:56:01.152Z,99.99
2017-08-26T05:57:01.155Z,99.99
2017-08-26T05:58:01.193Z,99.99
2017-08-26T05:59:00.929Z,99.99
2017-08-26T06:00:01.255Z,99.99
2017-08-26T06:01:01.308Z,99.68
2017-08-26T06:02:01.316Z,98.72
2017-08-26T06:03:01.354Z,98.29
2017-08-26T06:04:01.062Z,97.81
2017-08-26T06:05:01.444Z,96.85
2017-08-26T06:06:01.459Z,96.66
2017-08-26T06:07:01.495Z,96.51
2017-08-26T06:08:01.211Z,95.03
2017-08-26T06:09:01.563Z,94.06
2017-08-26T06:10:01.281Z,93.34
2017-08-26T06:11:01.932Z,92.67
2017-08-26T06:12:01.961Z,93.05
2017-08-26T06:13:01.998Z,93.49
2017-08-26T06:14:02.057Z,94.21
2017-08-26T06:15:02.087Z,94.78
2017-08-26T06:16:01.770Z,94.69
2017-08-26T06:17:02.145Z,95.41
2017-08-26T06:18:02.177Z,96.27
2017-08-26T06:19:02.227Z,96.75
2017-08-26T06:20:01.925Z,96.94
2017-08-26T06:21:02.051Z,96.85
2017-08-26T06:22:02.369Z,97.56
2017-08-26T06:23:02.424Z,97.28
2017-08-26T06:24:02.456Z,97.09
2017-08-26T06:25:02.494Z,96.99
2017-08-26T06:26:02.529Z,97.56
2017-08-26T06:27:02.551Z,97.86
2017-08-26T06:28:02.598Z,97.56
2017-08-26T06:29:02.612Z,97.24
2017-08-26T06:30:02.657Z,96.13
2017-08-26T06:31:02.685Z,94.45
2017-08-26T06:32:02.716Z,92.29
2017-08-26T06:33:02.757Z,89.78
2017-08-26T06:34:02.789Z,86.88
2017-08-26T06:35:02.823Z,85.38
2017-08-26T06:36:02.869Z,84.27
2017-08-26T06:37:02.895Z,83.34
2017-08-26T06:38:03.189Z,83.44
2017-08-26T06:39:02.935Z,83.73
2017-08-26T06:40:03.379Z,84.55
2017-08-26T06:41:03.334Z,84.32
2017-08-26T06:42:03.401Z,85.28
2017-08-26T06:43:03.390Z,85.09
2017-08-26T06:44:03.115Z,85.28
2017-08-26T06:45:03.492Z,84.99
2017-08-26T06:46:03.475Z,84.99
2017-08-26T06:47:03.509Z,84.9
2017-08-26T06:48:03.939Z,84.42
2017-08-26T06:49:04.283Z,83.36
2017-08-26T06:50:04.037Z,83.36
2017-08-26T06:51:04.468Z,83.74
2017-08-26T06:52:04.503Z,84.95
2017-08-26T06:53:04.519Z,85.87
2017-08-26T06:54:04.276Z,86.74
2017-08-26T06:55:04.683Z,87.18
2017-08-26T06:56:04.738Z,87.85
2017-08-26T06:57:04.749Z,88.39
2017-08-26T06:58:05.124Z,88.96
2017-08-26T06:59:04.826Z,89.5
2017-08-26T07:00:05.178Z,90.17
2017-08-26T07:01:05.529Z,90.94
2017-08-26T07:02:05.573Z,90.84
2017-08-26T07:03:05.604Z,90.65
2017-08-26T07:04:05.964Z,90.26
2017-08-26T07:05:05.680Z,90.6
2017-08-26T07:06:06.023Z,90.99
2017-08-26T07:07:06.060Z,91.47
2017-08-26T07:08:06.101Z,91.75
2017-08-26T07:09:06.148Z,91.75
2017-08-26T07:10:06.536Z,91.08
2017-08-26T07:11:06.942Z,91.75
2017-08-26T07:12:06.969Z,91.75
2017-08-26T07:13:07.347Z,91.56
2017-08-26T07:14:07.377Z,91.28
2017-08-26T07:15:07.465Z,91.37
2017-08-26T07:16:07.510Z,91.08
2017-08-26T07:17:07.221Z,91.56
2017-08-26T07:18:07.301Z,91.52
2017-08-26T07:19:07.669Z,91.18
2017-08-26T07:20:07.974Z,91.42
2017-08-26T07:21:07.404Z,90.75
2017-08-26T07:22:07.783Z,91.03
2017-08-26T07:23:08.121Z,91.13
2017-08-26T07:24:08.175Z,90.84
2017-08-26T07:25:08.512Z,91.13
2017-08-26T07:26:08.240Z,91.22
2017-08-26T07:27:08.604Z,91.32
2017-08-26T07:28:08.287Z,90.94
2017-08-26T07:29:08.697Z,91.13
2017-08-26T07:30:08.740Z,90.65
2017-08-26T07:31:08.769Z,90.36
2017-08-26T07:32:08.841Z,90.26
2017-08-26T07:33:08.842Z,90.45
2017-08-26T07:34:08.881Z,90.45
2017-08-26T07:35:08.970Z,90.17
2017-08-26T07:36:09.217Z,88.48
2017-08-26T07:37:09.007Z,88.24
2017-08-26T07:38:08.739Z,86.83
2017-08-26T07:39:08.812Z,85.91
2017-08-26T07:40:09.457Z,83.64
2017-08-26T07:41:09.296Z,82.67
2017-08-26T07:42:08.984Z,80.26
2017-08-26T07:43:09.778Z,80
2017-08-26T07:44:09.478Z,80.05
2017-08-26T07:45:09.850Z,79.81
2017-08-26T07:46:10.205Z,80.2
2017-08-26T07:47:09.644Z,81.9
2017-08-26T07:48:10.037Z,83.11
2017-08-26T07:49:10.096Z,84.22
2017-08-26T07:50:10.111Z,84.86
2017-08-26T07:51:10.123Z,85.63
2017-08-26T07:52:10.197Z,85.34
2017-08-26T07:53:09.909Z,85.34
2017-08-26T07:54:09.922Z,85.3
2017-08-26T07:55:10.369Z,85.2
2017-08-26T07:56:10.800Z,85.87
2017-08-26T07:57:10.870Z,85.97
2017-08-26T07:58:10.585Z,85.97
2017-08-26T07:59:10.572Z,85.87
2017-08-26T08:00:10.927Z,86.45
2017-08-26T08:01:10.968Z,86.35
2017-08-26T08:02:11.420Z,86.12
2017-08-26T08:03:11.231Z,86.35
2017-08-26T08:04:11.961Z,86.35
2017-08-26T08:05:11.646Z,86.55
2017-08-26T08:06:12.047Z,86.16
2017-08-26T08:07:12.463Z,86.07
2017-08-26T08:08:12.496Z,86.74
2017-08-26T08:09:12.182Z,85.87
2017-08-26T08:10:12.571Z,86.65
2017-08-26T08:11:12.830Z,86.79
2017-08-26T08:12:12.306Z,86.79
2017-08-26T08:13:12.321Z,87.18
2017-08-26T08:14:13.055Z,87.08
2017-08-26T08:15:13.082Z,86.99
2017-08-26T08:16:13.182Z,87.18
2017-08-26T08:17:13.195Z,87.46
2017-08-26T08:18:13.227Z,87.27
2017-08-26T08:19:13.225Z,86.89
2017-08-26T08:20:13.758Z,86.83
2017-08-26T08:21:13.453Z,86.35
2017-08-26T08:22:14.183Z,85.34
2017-08-26T08:23:14.800Z,84.47
2017-08-26T08:24:14.301Z,83.64
2017-08-26T08:25:14.329Z,83.55
2017-08-26T08:26:14.567Z,83.26
2017-08-26T08:27:14.363Z,82.97
2017-08-26T08:28:14.405Z,83.07
2017-08-26T08:29:14.424Z,82.49
2017-08-26T08:30:14.127Z,82.34
2017-08-26T08:31:14.510Z,82.05
2017-08-26T08:32:14.529Z,81.32
2017-08-26T08:33:14.878Z,81.12
2017-08-26T08:34:14.912Z,80.45
2017-08-26T08:35:14.978Z,80.45
2017-08-26T08:36:15.644Z,80.16
2017-08-26T08:37:15.646Z,81.12
2017-08-26T08:38:15.629Z,81.47
2017-08-26T08:39:15.716Z,82.24
2017-08-26T08:40:16.083Z,82.53
2017-08-26T08:41:15.911Z,82.68
2017-08-26T08:42:16.175Z,83.16
2017-08-26T08:43:15.978Z,84.03
2017-08-26T08:44:15.994Z,84.7
2017-08-26T08:45:16.048Z,84.66
2017-08-26T08:46:16.088Z,84.38
2017-08-26T08:47:16.114Z,84.61
2017-08-26T08:48:16.156Z,84.61
2017-08-26T08:49:16.208Z,84.22
2017-08-26T08:50:15.954Z,83.74
2017-08-26T08:51:16.688Z,84.32
2017-08-26T08:52:16.320Z,84.38
2017-08-26T08:53:16.700Z,84.18
2017-08-26T08:54:16.748Z,84.18
2017-08-26T08:55:16.771Z,83.64
2017-08-26T08:56:16.806Z,82.64
2017-08-26T08:57:16.840Z,82.97
2017-08-26T08:58:16.902Z,82.1
2017-08-26T08:59:16.941Z,81.81
2017-08-26T09:00:17.297Z,81.37
2017-08-26T09:01:16.700Z,80.83
2017-08-26T09:02:16.744Z,79.91
2017-08-26T09:03:16.777Z,78.59
2017-08-26T09:04:17.414Z,77.19
2017-08-26T09:05:17.199Z,76.26
2017-08-26T09:06:17.850Z,74.94
2017-08-26T09:07:18.203Z,74.75
2017-08-26T09:08:18.257Z,73.04
2017-08-26T09:09:18.268Z,73.39
2017-08-26T09:10:18.404Z,73.04
2017-08-26T09:11:18.366Z,72.75
2017-08-26T09:12:18.404Z,73.14
2017-08-26T09:13:18.796Z,73.33
2017-08-26T09:14:18.842Z,73.59
2017-08-26T09:15:19.333Z,74.27
2017-08-26T09:16:19.272Z,73.68
2017-08-26T09:17:19.329Z,74.17
2017-08-26T09:18:19.029Z,73.39
2017-08-26T09:19:19.339Z,74.27
2017-08-26T09:20:19.357Z,74.52
2017-08-26T09:21:19.569Z,74.13
2017-08-26T09:22:19.940Z,75.06
2017-08-26T09:23:19.655Z,75.54
2017-08-26T09:24:20.024Z,75.93
2017-08-26T09:25:20.034Z,76.28
2017-08-26T09:26:20.082Z,77.15
2017-08-26T09:27:20.419Z,77.78
2017-08-26T09:28:20.434Z,78.36
2017-08-26T09:29:20.777Z,77.88
2017-08-26T09:30:21.149Z,78.08
2017-08-26T09:31:20.868Z,78.91
2017-08-26T09:32:21.560Z,79
2017-08-26T09:33:21.612Z,80.41
2017-08-26T09:34:21.643Z,80.41
2017-08-26T09:35:21.720Z,80.99
2017-08-26T09:36:22.071Z,81.66
2017-08-26T09:37:22.083Z,82.14
2017-08-26T09:38:22.150Z,82.1
2017-08-26T09:39:22.249Z,82.01
2017-08-26T09:40:22.267Z,82.39
2017-08-26T09:41:22.300Z,82.59
2017-08-26T09:42:22.340Z,82.87
2017-08-26T09:43:22.384Z,83.16
2017-08-26T09:44:22.767Z,83.07
2017-08-26T09:45:22.776Z,83.36
2017-08-26T09:46:22.819Z,83.74
2017-08-26T09:47:22.519Z,83.36
2017-08-26T09:48:22.563Z,83.26
2017-08-26T09:49:22.623Z,83.16
2017-08-26T09:50:22.661Z,83.64
2017-08-26T09:51:22.688Z,83.26
2017-08-26T09:52:23.358Z,83.45
2017-08-26T09:53:23.420Z,83.07
2017-08-26T09:54:23.159Z,83.74
2017-08-26T09:55:23.825Z,83.26
2017-08-26T09:56:23.830Z,83.16
2017-08-26T09:57:23.878Z,83.55
2017-08-26T09:58:23.933Z,83.36
2017-08-26T09:59:23.946Z,82.87
2017-08-26T10:00:23.995Z,82.87
2017-08-26T10:01:24.022Z,82.97
2017-08-26T10:02:24.051Z,82.53
2017-08-26T10:03:24.087Z,82.72
2017-08-26T10:04:24.168Z,83.2
2017-08-26T10:05:23.891Z,82.82
2017-08-26T10:06:24.243Z,82.24
2017-08-26T10:07:24.256Z,81.6
2017-08-26T10:08:24.017Z,81.32
2017-08-26T10:09:24.673Z,80.68
2017-08-26T10:10:24.719Z,78.99
2017-08-26T10:11:24.751Z,78.44
2017-08-26T10:12:24.773Z,77.38
2017-08-26T10:13:24.859Z,77.22
2017-08-26T10:14:24.877Z,77.42
2017-08-26T10:15:24.559Z,77.13
2017-08-26T10:16:24.921Z,76.8
2017-08-26T10:17:24.960Z,77.28
2017-08-26T10:18:24.721Z,77.19
2017-08-26T10:19:25.053Z,76.8
2017-08-26T10:20:25.073Z,76.51
2017-08-26T10:21:25.138Z,76.26
2017-08-26T10:22:25.466Z,74.85
2017-08-26T10:23:25.491Z,74.01
2017-08-26T10:24:25.551Z,72.5
2017-08-26T10:25:25.655Z,71.18
2017-08-26T10:26:25.674Z,70.44
2017-08-26T10:27:25.717Z,70.09
2017-08-26T10:28:25.747Z,68.96
2017-08-26T10:29:25.785Z,67.76
2017-08-26T10:30:25.823Z,67.57
2017-08-26T10:31:25.889Z,66.89
2017-08-26T10:32:25.925Z,67.08
2017-08-26T10:33:25.622Z,68.37
2017-08-26T10:34:25.659Z,68.76
2017-08-26T10:35:26.060Z,70.67
2017-08-26T10:36:26.423Z,71.06
2017-08-26T10:37:26.485Z,70.96
2017-08-26T10:38:26.478Z,69.99
2017-08-26T10:39:26.532Z,69.54
2017-08-26T10:40:27.160Z,68.08
2017-08-26T10:41:27.197Z,67.44
2017-08-26T10:42:26.920Z,67.18
2017-08-26T10:43:27.579Z,66.79
2017-08-26T10:44:27.297Z,64.91
2017-08-26T10:45:27.646Z,64.56
2017-08-26T10:46:27.709Z,64.36
2017-08-26T10:47:27.727Z,63.49
2017-08-26T10:48:27.764Z,63.78
2017-08-26T10:49:27.490Z,63.1
2017-08-26T10:50:27.865Z,62.57
2017-08-26T10:51:27.880Z,61.93
2017-08-26T10:52:27.958Z,60.62
2017-08-26T10:53:27.953Z,58.56
2017-08-26T10:54:28.030Z,57.42
2017-08-26T10:55:28.066Z,57.23
2017-08-26T10:56:28.075Z,58.01
2017-08-26T10:57:28.133Z,59.12
2017-08-26T10:58:27.841Z,61.11
2017-08-26T10:59:28.192Z,61.54
2017-08-26T11:00:28.233Z,63.35
2017-08-26T11:01:28.273Z,63.9
2017-08-26T11:02:28.331Z,65.63
2017-08-26T11:03:28.367Z,66.08
2017-08-26T11:04:28.672Z,66.44
2017-08-26T11:05:28.732Z,66.05
2017-08-26T11:06:28.781Z,64.69
2017-08-26T11:07:28.585Z,63.68
2017-08-26T11:08:29.252Z,63.59
2017-08-26T11:09:28.975Z,62.87
2017-08-26T11:10:29.324Z,62.51
2017-08-26T11:11:29.072Z,60.91
2017-08-26T11:12:29.119Z,59.84
2017-08-26T11:13:29.798Z,59.64
2017-08-26T11:14:29.820Z,60.33
2017-08-26T11:15:30.219Z,59.77
2017-08-26T11:16:30.298Z,59.48
2017-08-26T11:17:30.291Z,58.8
2017-08-26T11:18:30.349Z,59.87
2017-08-26T11:19:30.393Z,61.27
2017-08-26T11:20:30.440Z,62.96
2017-08-26T11:21:30.173Z,64.59
2017-08-26T11:22:30.558Z,65.27
2017-08-26T11:23:30.923Z,65.63
2017-08-26T11:24:30.964Z,66.08
2017-08-26T11:25:30.955Z,66.08
2017-08-26T11:26:31.561Z,65.04
2017-08-26T11:27:31.288Z,65.79
2017-08-26T11:28:31.962Z,65.98
2017-08-26T11:29:31.975Z,66.34
2017-08-26T11:30:32.321Z,67.11
2017-08-26T11:31:32.719Z,67.11
2017-08-26T11:32:32.768Z,67.08
2017-08-26T11:33:32.487Z,66.44
2017-08-26T11:34:32.493Z,66.34
2017-08-26T11:35:32.856Z,66.76
2017-08-26T11:36:32.936Z,65.98
2017-08-26T11:37:32.935Z,65.72
2017-08-26T11:38:33.344Z,65.14
2017-08-26T11:39:33.357Z,65.92
2017-08-26T11:40:33.675Z,67.15
2017-08-26T11:41:33.716Z,67.54
2017-08-26T11:42:33.447Z,67.7
2017-08-26T11:43:33.792Z,66.56
2017-08-26T11:44:33.834Z,66.96
2017-08-26T11:45:33.864Z,67.44
2017-08-26T11:46:33.925Z,68.48
2017-08-26T11:47:33.953Z,69.02
2017-08-26T11:48:34.262Z,69.7
2017-08-26T11:49:34.652Z,69.67
2017-08-26T11:50:34.670Z,70.35
2017-08-26T11:51:34.721Z,70.7
2017-08-26T11:52:34.764Z,71.38
2017-08-26T11:53:34.809Z,72.02
2017-08-26T11:54:34.820Z,71.93
2017-08-26T11:55:34.833Z,71.93
2017-08-26T11:56:35.220Z,71.19
2017-08-26T11:57:34.924Z,70.99
2017-08-26T11:58:35.561Z,70.9
2017-08-26T11:59:35.574Z,71.22
2017-08-26T12:00:35.619Z,70.9
2017-08-26T12:01:35.695Z,70.9
2017-08-26T12:02:36.064Z,70.9
2017-08-26T12:03:36.081Z,71.44
2017-08-26T12:04:36.119Z,72.16
2017-08-26T12:05:36.161Z,72.12
2017-08-26T12:06:36.241Z,72.06
2017-08-26T12:07:36.244Z,72.45
2017-08-26T12:08:36.277Z,72.8
2017-08-26T12:09:36.337Z,72.61
2017-08-26T12:10:36.362Z,73.48
2017-08-26T12:11:36.127Z,73.28
2017-08-26T12:12:36.770Z,72.89
2017-08-26T12:13:36.808Z,71.38
2017-08-26T12:14:36.537Z,71.28
2017-08-26T12:15:36.874Z,70.73
2017-08-26T12:16:36.575Z,70.83
2017-08-26T12:17:36.977Z,70.93
2017-08-26T12:18:36.734Z,70.73
2017-08-26T12:19:37.100Z,70.83
2017-08-26T12:20:37.142Z,71.51
2017-08-26T12:21:37.174Z,71.61
2017-08-26T12:22:36.902Z,71.77
2017-08-26T12:23:37.258Z,71.96
2017-08-26T12:24:37.378Z,72.83
2017-08-26T12:25:37.441Z,72.93
2017-08-26T12:26:38.082Z,72.71
2017-08-26T12:27:38.135Z,72.45
2017-08-26T12:28:38.471Z,72.16
2017-08-26T12:29:38.900Z,72.64
2017-08-26T12:30:38.953Z,73.32
2017-08-26T12:31:38.722Z,73.48
2017-08-26T12:32:39.428Z,73.48
2017-08-26T12:33:39.144Z,74.32
2017-08-26T12:34:39.760Z,74.6
2017-08-26T12:35:39.793Z,74.41
2017-08-26T12:36:39.829Z,74.8
2017-08-26T12:37:39.541Z,74.99
2017-08-26T12:38:40.196Z,75.38
2017-08-26T12:39:40.268Z,75.24
2017-08-26T12:40:40.298Z,76.41
2017-08-26T12:41:40.352Z,76.21
2017-08-26T12:42:40.384Z,76.31
2017-08-26T12:43:40.736Z,76.02
2017-08-26T12:44:40.474Z,75.24
2017-08-26T12:45:41.101Z,76.02
2017-08-26T12:46:40.802Z,75.44
2017-08-26T12:47:41.176Z,75.24
2017-08-26T12:48:40.863Z,75.28
2017-08-26T12:49:41.538Z,74.8
2017-08-26T12:50:41.262Z,75.38
2017-08-26T12:51:41.604Z,75.38
2017-08-26T12:52:41.976Z,75.44
2017-08-26T12:53:42.337Z,75.28
2017-08-26T12:54:42.365Z,74.9